Weather History for KLAM - June, 2014

Change the Weather History Date:

Saturday, June 7, 2014

  Actual Average Record
Temperature  
Mean Temperature 64 °F -  
Max Temperature 74 °F 74 °F 96 °F (2011)
Min Temperature 53 °F 48 °F 34 °F (1954)
Degree Days  
Heating Degree Days 2    
Growing Degree Days 14 (Base 50)    
Moisture  
Dew Point 44 °F    
Average Humidity 50    
Maximum Humidity 74    
Minimum Humidity 9    
Precipitation  
Precipitation 0.14 in - - ()
Sea Level Pressure  
Sea Level Pressure 30.13 in    
Wind  
Wind Speed 10 mph (SSW)    
Max Wind Speed 33 mph    
Max Gust Speed 52 mph    
Visibility 10 miles    
Events Rain    
Averages and records for this station are not official NWS values.
T = Trace of Precipitation, MM = Missing Value Source: NWS Daily Summary

Daily Weather History Graph

Daily Weather History Graph

Search for Another Location

Airport or City:

Trip Planner

Search our weather history database for the weather conditions in past years. The results will help you decide how hot, cold, wet, or windy it might be!

Date:

Astronomy

Jun. 07, 2014 Rise Set
Actual Time 5:48 AM MDT 8:19 PM MDT
Civil Twilight 5:18 AM MDT 8:49 PM MDT
Nautical Twilight 4:41 AM MDT 9:26 PM MDT
Astronomical Twilight 4:00 AM MDT 10:07 PM MDT
Moon 2:49 PM MDT (6/7) 2:00 AM MDT (6/7)
Length of Visible Light 15h 30m
Length of Day
14h 31m
Waxing Gibbous, 68% of the Moon is Illuminated
Jun 7
Waxing Gibbous
Jun 12
Full
Jun 19
Last Quarter
Jun 27
New
Jul 5
First Quarter

Hourly Weather History & Observations

Time (MDT) Temp. Dew Point Humidity Pressure Visibility Wind Dir Wind Speed Gust Speed Precip Events Conditions
12:15 AM 66.7 °F 5.9 °F 9% 30.07 in 10.0 mi South 5.8 mph - N/A   Clear
12:35 AM 67.6 °F 6.3 °F 9% 30.07 in 10.0 mi Calm Calm - N/A   Clear
12:55 AM 65.8 °F 14.9 °F 14% 30.07 in 10.0 mi SW 8.1 mph - N/A   Clear
1:15 AM 65.7 °F 32.9 °F 30% 30.08 in 10.0 mi SSW 10.4 mph - N/A   Clear
1:35 AM 65.3 °F 33.8 °F 31% 30.08 in 10.0 mi SSW 8.1 mph - N/A   Clear
1:55 AM 64.8 °F 38.3 °F 38% 30.08 in 10.0 mi SSW 9.2 mph - N/A   Clear
2:15 AM 64.0 °F 42.6 °F 46% 30.08 in 10.0 mi SSW 9.2 mph - N/A   Clear
2:35 AM 64.0 °F 45.9 °F 52% 30.08 in 10.0 mi SW 9.2 mph - N/A   Clear
2:55 AM 63.7 °F 46.0 °F 53% 30.08 in 10.0 mi SW 9.2 mph - N/A   Clear
3:15 AM 63.5 °F 46.2 °F 53% 30.08 in 10.0 mi SW 9.2 mph - N/A   Clear
3:35 AM 63.5 °F 46.4 °F 54% 30.08 in 10.0 mi SW 11.5 mph - N/A   Clear
3:55 AM 63.1 °F 46.0 °F 54% 30.09 in 10.0 mi SSW 10.4 mph - N/A   Clear
4:15 AM 62.6 °F 47.1 °F 57% 30.09 in 10.0 mi SSW 9.2 mph - N/A   Clear
4:35 AM 61.7 °F 46.8 °F 58% 30.09 in 10.0 mi SSW 9.2 mph - N/A   Clear
4:55 AM 61.2 °F 48.0 °F 62% 30.11 in 10.0 mi SSW 8.1 mph - N/A   Clear
5:15 AM 60.8 °F 48.9 °F 65% 30.10 in 10.0 mi SSW 10.4 mph - N/A   Clear
5:55 AM 60.1 °F 49.6 °F 68% 30.11 in 10.0 mi SSW 10.4 mph - N/A   Clear
6:15 AM 60.1 °F 50.0 °F 69% 30.12 in 10.0 mi SSW 10.4 mph - N/A   Clear
6:35 AM 60.4 °F 50.0 °F 68% 30.13 in 10.0 mi SSW 8.1 mph - N/A   Clear
6:55 AM 61.0 °F 50.2 °F 68% 30.13 in 10.0 mi SSW 10.4 mph - N/A   Clear
7:15 AM 61.7 °F 50.5 °F 67% 30.14 in 10.0 mi SSW 11.5 mph - N/A   Clear
7:35 AM 62.2 °F 50.5 °F 65% 30.15 in 10.0 mi SSW 9.2 mph - N/A   Clear
7:55 AM 63.0 °F 50.9 °F 65% 30.15 in 10.0 mi SSW 9.2 mph - N/A   Clear
8:15 AM 63.5 °F 50.4 °F 62% 30.16 in 10.0 mi South 12.7 mph 17.3 mph N/A   Clear
8:35 AM 64.4 °F 50.7 °F 61% 30.17 in 10.0 mi South 10.4 mph - N/A   Clear
8:55 AM 64.8 °F 51.3 °F 62% 30.17 in 10.0 mi South 11.5 mph 20.7 mph N/A   Clear
9:15 AM 65.5 °F 51.6 °F 61% 30.18 in 10.0 mi South 15.0 mph 20.7 mph N/A   Clear
9:35 AM 66.7 °F 51.8 °F 59% 30.18 in 10.0 mi SSW 12.7 mph 24.2 mph N/A   Scattered Clouds
9:55 AM 67.3 °F 51.3 °F 56% 30.18 in 10.0 mi South 8.1 mph 23.0 mph N/A   Scattered Clouds
10:15 AM 68.5 °F 49.8 °F 51% 30.17 in 10.0 mi SSE 11.5 mph 18.4 mph N/A   Mostly Cloudy
10:35 AM 69.3 °F 50.5 °F 51% 30.17 in 10.0 mi South 11.5 mph 21.9 mph N/A   Mostly Cloudy
11:15 AM 69.8 °F 47.5 °F 45% 30.17 in 10.0 mi South 12.7 mph 19.6 mph N/A   Mostly Cloudy
11:35 AM 71.8 °F 47.7 °F 42% 30.17 in 10.0 mi South 16.1 mph 20.7 mph N/A   Mostly Cloudy
11:55 AM 72.0 °F 47.1 °F 41% 30.17 in 10.0 mi SSE 11.5 mph 21.9 mph N/A   Mostly Cloudy
12:15 PM 71.1 °F 46.9 °F 42% 30.16 in 10.0 mi SSE 16.1 mph 24.2 mph N/A   Mostly Cloudy
12:35 PM 72.0 °F 47.1 °F 41% 30.15 in 10.0 mi SSE 16.1 mph 27.6 mph N/A   Mostly Cloudy
12:50 PM 72.9 °F 47.8 °F 41% 30.15 in 10.0 mi SSE 15.0 mph 27.6 mph N/A   Scattered Clouds
1:15 PM 72.1 °F 47.1 °F 41% 30.15 in 10.0 mi SSE 18.4 mph 25.3 mph N/A   Mostly Cloudy
1:35 PM 73.4 °F 47.1 °F 39% 30.15 in 10.0 mi South 20.7 mph 29.9 mph N/A   Scattered Clouds
1:55 PM 73.0 °F 46.6 °F 39% 30.14 in 10.0 mi SE 15.0 mph 24.2 mph N/A   Scattered Clouds
2:15 PM 73.0 °F 45.7 °F 38% 30.13 in 10.0 mi SSE 21.9 mph 26.5 mph N/A   Scattered Clouds
2:35 PM 73.4 °F 45.1 °F 36% 30.13 in 10.0 mi SSE 17.3 mph 26.5 mph N/A   Scattered Clouds
2:55 PM 73.4 °F 46.2 °F 38% 30.13 in 10.0 mi SSE 16.1 mph 29.9 mph N/A   Mostly Cloudy
3:15 PM 73.8 °F 46.4 °F 38% 30.12 in 10.0 mi SSE 15.0 mph 26.5 mph N/A   Scattered Clouds
3:35 PM 74.7 °F 45.7 °F 36% 30.12 in 10.0 mi South 16.1 mph 26.5 mph N/A   Scattered Clouds
3:55 PM 74.3 °F 45.5 °F 36% 30.10 in 10.0 mi South 20.7 mph 31.1 mph N/A   Scattered Clouds
4:15 PM 73.6 °F 45.3 °F 36% 30.10 in 10.0 mi SE 6.9 mph - N/A   Scattered Clouds
4:35 PM 72.9 °F 45.7 °F 38% 30.10 in 10.0 mi SE 9.2 mph - N/A   Mostly Cloudy
4:55 PM 73.4 °F 45.1 °F 36% 30.10 in 10.0 mi SE 10.4 mph 18.4 mph N/A   Mostly Cloudy
5:15 PM 66.9 °F 36.9 °F 33% 30.10 in 10.0 mi North 21.9 mph 29.9 mph N/A   Overcast
5:35 PM 62.8 °F 36.1 °F 37% 30.10 in 10.0 mi NNW 26.5 mph 41.4 mph N/A   Mostly Cloudy
5:55 PM 59.7 °F 37.6 °F 44% 30.13 in 10.0 mi NNW 19.6 mph 51.8 mph N/A   Overcast
6:15 PM 55.2 °F 42.8 °F 63% 30.11 in 7.0 mi NNW 33.4 mph 47.2 mph N/A Rain Light Rain
6:35 PM 53.1 °F 43.9 °F 71% 30.18 in 7.0 mi NNW 18.4 mph 23.0 mph 0.04 in Rain Rain
6:55 PM 53.6 °F 44.8 °F 72% 30.15 in 7.0 mi NNW 28.8 mph 39.1 mph 0.11 in Rain Rain
7:15 PM 53.8 °F 45.3 °F 73% 30.17 in 7.0 mi North 9.2 mph 19.6 mph 0.03 in Rain Light Rain
7:35 PM 54.5 °F 45.5 °F 72% 30.14 in 10.0 mi NW 11.5 mph 24.2 mph 0.03 in Rain Light Rain
7:55 PM 56.3 °F 45.7 °F 68% 30.11 in 10.0 mi East 9.2 mph 20.7 mph 0.03 in   Scattered Clouds
8:15 PM 55.6 °F 47.3 °F 74% 30.11 in 10.0 mi WSW 6.9 mph - N/A Rain Light Rain
8:35 PM 57.6 °F 43.2 °F 59% 30.11 in 10.0 mi West 8.1 mph - N/A   Clear
8:55 PM 57.4 °F 44.4 °F 62% 30.11 in 10.0 mi West 9.2 mph - N/A   Clear
9:15 PM 59.0 °F 42.1 °F 53% 30.12 in 10.0 mi West 8.1 mph - N/A   Clear
9:35 PM 59.0 °F 43.3 °F 56% 30.14 in 10.0 mi WSW 13.8 mph - N/A   Clear
9:55 PM 62.1 °F 37.4 °F 40% 30.13 in 10.0 mi West 8.1 mph - N/A   Scattered Clouds
10:15 PM 61.3 °F 39.4 °F 44% 30.13 in 10.0 mi SW 8.1 mph - N/A   Mostly Cloudy
10:35 PM 63.1 °F 39.2 °F 41% 30.13 in 10.0 mi SSE 11.5 mph - N/A   Scattered Clouds
10:55 PM 58.1 °F 43.0 °F 57% 30.14 in 10.0 mi SSW 9.2 mph - N/A   Scattered Clouds
11:15 PM 58.1 °F 42.6 °F 56% 30.14 in 10.0 mi South 5.8 mph - N/A   Scattered Clouds
11:35 PM 57.7 °F 42.4 °F 57% 30.13 in 10.0 mi SSW 5.8 mph - N/A   Clear
11:55 PM 59.2 °F 40.5 °F 50% 30.13 in 10.0 mi SW 11.5 mph - N/A   Clear